sensor_id;sensor_type;location;lat;lon;timestamp;P1;P2;P0
62631;PMS5003;48703;51.248;-0.546;2023-04-08T00:01:10;28.37;25.83;
62631;PMS5003;48703;51.248;-0.546;2023-04-08T00:04:12;29.30;27.90;
62631;PMS5003;48703;51.248;-0.546;2023-04-08T00:07:13;29.29;28.37;
62631;PMS5003;48703;51.248;-0.546;2023-04-08T00:10:15;31.06;28.30;
62631;PMS5003;48703;51.248;-0.546;2023-04-08T00:13:16;31.26;29.71;
62631;PMS5003;48703;51.248;-0.546;2023-04-08T00:16:18;33.46;31.45;
62631;PMS5003;48703;51.248;-0.546;2023-04-08T00:19:19;31.61;29.03;
62631;PMS5003;48703;51.248;-0.546;2023-04-08T00:22:21;28.94;27.74;
62631;PMS5003;48703;51.248;-0.546;2023-04-08T00:25:22;27.61;26.36;
62631;PMS5003;48703;51.248;-0.546;2023-04-08T00:28:24;33.74;31.46;
62631;PMS5003;48703;51.248;-0.546;2023-04-08T00:31:26;31.51;30.49;
62631;PMS5003;48703;51.248;-0.546;2023-04-08T00:34:28;29.97;28.49;
62631;PMS5003;48703;51.248;-0.546;2023-04-08T00:37:29;30.46;28.57;
62631;PMS5003;48703;51.248;-0.546;2023-04-08T00:40:30;27.74;26.07;
62631;PMS5003;48703;51.248;-0.546;2023-04-08T00:43:32;32.89;30.10;
62631;PMS5003;48703;51.248;-0.546;2023-04-08T00:46:38;33.01;30.57;
62631;PMS5003;48703;51.248;-0.546;2023-04-08T00:49:35;29.84;28.11;
62631;PMS5003;48703;51.248;-0.546;2023-04-08T00:52:36;27.70;27.16;
62631;PMS5003;48703;51.248;-0.546;2023-04-08T00:55:37;28.68;25.91;
62631;PMS5003;48703;51.248;-0.546;2023-04-08T00:58:38;27.50;25.51;
62631;PMS5003;48703;51.248;-0.546;2023-04-08T01:01:46;26.47;24.69;
62631;PMS5003;48703;51.248;-0.546;2023-04-08T01:04:43;28.70;27.00;
62631;PMS5003;48703;51.248;-0.546;2023-04-08T01:07:45;27.45;24.72;
62631;PMS5003;48703;51.248;-0.546;2023-04-08T01:10:47;28.53;26.73;
62631;PMS5003;48703;51.248;-0.546;2023-04-08T01:13:47;30.01;26.11;
62631;PMS5003;48703;51.248;-0.546;2023-04-08T01:16:49;30.19;28.66;
62631;PMS5003;48703;51.248;-0.546;2023-04-08T01:19:51;24.83;24.69;
62631;PMS5003;48703;51.248;-0.546;2023-04-08T01:22:57;25.80;24.90;
62631;PMS5003;48703;51.248;-0.546;2023-04-08T01:25:54;26.84;24.32;
62631;PMS5003;48703;51.248;-0.546;2023-04-08T01:28:57;27.23;25.00;
62631;PMS5003;48703;51.248;-0.546;2023-04-08T01:31:58;25.16;23.77;
62631;PMS5003;48703;51.248;-0.546;2023-04-08T01:34:59;23.71;22.73;
62631;PMS5003;48703;51.248;-0.546;2023-04-08T01:38:01;25.19;22.83;
62631;PMS5003;48703;51.248;-0.546;2023-04-08T01:41:02;23.33;22.94;
62631;PMS5003;48703;51.248;-0.546;2023-04-08T01:44:04;20.04;19.49;
62631;PMS5003;48703;51.248;-0.546;2023-04-08T01:47:06;22.42;21.78;
62631;PMS5003;48703;51.248;-0.546;2023-04-08T01:50:08;21.84;18.96;
62631;PMS5003;48703;51.248;-0.546;2023-04-08T01:53:10;22.57;21.19;
62631;PMS5003;48703;51.248;-0.546;2023-04-08T01:56:11;21.49;20.37;
62631;PMS5003;48703;51.248;-0.546;2023-04-08T01:59:14;21.69;20.67;
62631;PMS5003;48703;51.248;-0.546;2023-04-08T02:02:14;21.68;20.84;
62631;PMS5003;48703;51.248;-0.546;2023-04-08T02:05:16;20.57;18.19;
62631;PMS5003;48703;51.248;-0.546;2023-04-08T02:08:17;21.17;20.00;
62631;PMS5003;48703;51.248;-0.546;2023-04-08T02:11:19;19.60;18.49;
62631;PMS5003;48703;51.248;-0.546;2023-04-08T02:14:20;20.59;18.07;
62631;PMS5003;48703;51.248;-0.546;2023-04-08T02:17:24;21.87;21.27;
62631;PMS5003;48703;51.248;-0.546;2023-04-08T02:20:25;24.99;23.30;
62631;PMS5003;48703;51.248;-0.546;2023-04-08T02:23:26;23.53;21.99;
62631;PMS5003;48703;51.248;-0.546;2023-04-08T02:26:26;25.57;22.03;
62631;PMS5003;48703;51.248;-0.546;2023-04-08T02:29:29;26.17;22.79;
62631;PMS5003;48703;51.248;-0.546;2023-04-08T02:32:30;24.00;21.53;
62631;PMS5003;48703;51.248;-0.546;2023-04-08T02:35:32;25.79;24.88;
62631;PMS5003;48703;51.248;-0.546;2023-04-08T02:38:33;28.36;25.26;
62631;PMS5003;48703;51.248;-0.546;2023-04-08T02:41:35;27.17;26.40;
62631;PMS5003;48703;51.248;-0.546;2023-04-08T02:44:37;27.33;25.39;
62631;PMS5003;48703;51.248;-0.546;2023-04-08T02:47:39;28.21;27.06;
62631;PMS5003;48703;51.248;-0.546;2023-04-08T02:50:41;26.87;24.01;
62631;PMS5003;48703;51.248;-0.546;2023-04-08T02:53:42;27.10;24.28;
62631;PMS5003;48703;51.248;-0.546;2023-04-08T02:56:43;27.47;26.47;
62631;PMS5003;48703;51.248;-0.546;2023-04-08T02:59:45;28.65;26.67;
62631;PMS5003;48703;51.248;-0.546;2023-04-08T03:02:46;28.32;26.88;
62631;PMS5003;48703;51.248;-0.546;2023-04-08T03:05:48;29.81;28.21;
62631;PMS5003;48703;51.248;-0.546;2023-04-08T03:08:50;29.46;26.43;
62631;PMS5003;48703;51.248;-0.546;2023-04-08T03:11:51;27.63;25.77;
62631;PMS5003;48703;51.248;-0.546;2023-04-08T03:14:53;28.53;25.50;
62631;PMS5003;48703;51.248;-0.546;2023-04-08T03:17:55;27.37;26.57;
62631;PMS5003;48703;51.248;-0.546;2023-04-08T03:20:56;29.80;27.71;
62631;PMS5003;48703;51.248;-0.546;2023-04-08T03:23:58;28.57;26.32;
62631;PMS5003;48703;51.248;-0.546;2023-04-08T03:26:59;26.53;25.33;
62631;PMS5003;48703;51.248;-0.546;2023-04-08T03:30:00;27.97;25.97;
62631;PMS5003;48703;51.248;-0.546;2023-04-08T03:33:02;27.04;24.47;
62631;PMS5003;48703;51.248;-0.546;2023-04-08T03:36:04;27.96;26.23;
62631;PMS5003;48703;51.248;-0.546;2023-04-08T03:39:05;27.64;25.51;
62631;PMS5003;48703;51.248;-0.546;2023-04-08T03:42:07;26.84;25.97;
62631;PMS5003;48703;51.248;-0.546;2023-04-08T03:45:09;28.69;26.43;
62631;PMS5003;48703;51.248;-0.546;2023-04-08T03:48:11;27.39;25.77;
62631;PMS5003;48703;51.248;-0.546;2023-04-08T03:51:13;27.36;25.30;
62631;PMS5003;48703;51.248;-0.546;2023-04-08T03:54:14;28.99;26.78;
62631;PMS5003;48703;51.248;-0.546;2023-04-08T03:57:16;25.19;23.94;
62631;PMS5003;48703;51.248;-0.546;2023-04-08T04:00:17;25.40;24.17;
62631;PMS5003;48703;51.248;-0.546;2023-04-08T04:03:19;30.53;26.27;
62631;PMS5003;48703;51.248;-0.546;2023-04-08T04:06:20;28.84;26.62;
62631;PMS5003;48703;51.248;-0.546;2023-04-08T04:09:22;31.74;28.22;
62631;PMS5003;48703;51.248;-0.546;2023-04-08T04:12:23;29.99;27.77;
62631;PMS5003;48703;51.248;-0.546;2023-04-08T04:15:25;26.09;25.39;
62631;PMS5003;48703;51.248;-0.546;2023-04-08T04:18:27;27.99;26.71;
62631;PMS5003;48703;51.248;-0.546;2023-04-08T04:21:28;29.86;26.35;
62631;PMS5003;48703;51.248;-0.546;2023-04-08T04:24:29;27.67;24.38;
62631;PMS5003;48703;51.248;-0.546;2023-04-08T04:27:30;27.41;25.45;
62631;PMS5003;48703;51.248;-0.546;2023-04-08T04:30:31;27.06;25.17;
62631;PMS5003;48703;51.248;-0.546;2023-04-08T04:33:32;27.10;25.10;
62631;PMS5003;48703;51.248;-0.546;2023-04-08T04:36:34;29.10;26.42;
62631;PMS5003;48703;51.248;-0.546;2023-04-08T04:39:35;27.14;25.14;
62631;PMS5003;48703;51.248;-0.546;2023-04-08T04:42:37;29.54;26.57;
62631;PMS5003;48703;51.248;-0.546;2023-04-08T04:45:38;25.64;25.12;
62631;PMS5003;48703;51.248;-0.546;2023-04-08T04:48:40;26.94;24.31;
62631;PMS5003;48703;51.248;-0.546;2023-04-08T04:51:42;25.13;24.23;
62631;PMS5003;48703;51.248;-0.546;2023-04-08T04:54:43;28.41;25.01;
62631;PMS5003;48703;51.248;-0.546;2023-04-08T04:57:45;27.46;23.83;
62631;PMS5003;48703;51.248;-0.546;2023-04-08T05:00:47;26.74;24.93;
62631;PMS5003;48703;51.248;-0.546;2023-04-08T05:03:49;26.00;25.60;
62631;PMS5003;48703;51.248;-0.546;2023-04-08T05:06:51;25.00;23.17;
62631;PMS5003;48703;51.248;-0.546;2023-04-08T05:09:52;28.33;27.13;
62631;PMS5003;48703;51.248;-0.546;2023-04-08T05:12:54;27.19;25.66;
62631;PMS5003;48703;51.248;-0.546;2023-04-08T05:15:56;27.97;26.96;
62631;PMS5003;48703;51.248;-0.546;2023-04-08T05:18:58;27.11;25.37;
62631;PMS5003;48703;51.248;-0.546;2023-04-08T05:21:59;27.38;25.78;
62631;PMS5003;48703;51.248;-0.546;2023-04-08T05:25:00;30.32;28.77;
62631;PMS5003;48703;51.248;-0.546;2023-04-08T05:28:01;40.57;36.40;
62631;PMS5003;48703;51.248;-0.546;2023-04-08T05:31:03;42.81;37.48;
62631;PMS5003;48703;51.248;-0.546;2023-04-08T05:34:06;39.22;36.14;
62631;PMS5003;48703;51.248;-0.546;2023-04-08T05:37:08;33.56;29.41;
62631;PMS5003;48703;51.248;-0.546;2023-04-08T05:40:10;31.13;29.27;
62631;PMS5003;48703;51.248;-0.546;2023-04-08T05:43:12;34.63;30.19;
62631;PMS5003;48703;51.248;-0.546;2023-04-08T05:46:12;38.47;32.34;
62631;PMS5003;48703;51.248;-0.546;2023-04-08T05:49:14;31.51;29.75;
62631;PMS5003;48703;51.248;-0.546;2023-04-08T05:52:14;33.29;30.31;
62631;PMS5003;48703;51.248;-0.546;2023-04-08T05:55:15;33.54;30.44;
62631;PMS5003;48703;51.248;-0.546;2023-04-08T05:58:17;33.03;31.62;
62631;PMS5003;48703;51.248;-0.546;2023-04-08T06:01:17;32.12;29.74;
62631;PMS5003;48703;51.248;-0.546;2023-04-08T06:04:18;35.16;33.04;
62631;PMS5003;48703;51.248;-0.546;2023-04-08T06:07:20;36.16;33.49;
62631;PMS5003;48703;51.248;-0.546;2023-04-08T06:10:22;35.00;32.09;
62631;PMS5003;48703;51.248;-0.546;2023-04-08T06:13:23;31.59;29.69;
62631;PMS5003;48703;51.248;-0.546;2023-04-08T06:16:25;34.45;32.58;
62631;PMS5003;48703;51.248;-0.546;2023-04-08T06:19:27;33.45;31.71;
62631;PMS5003;48703;51.248;-0.546;2023-04-08T06:22:29;35.41;32.00;
62631;PMS5003;48703;51.248;-0.546;2023-04-08T06:25:30;36.45;33.54;
62631;PMS5003;48703;51.248;-0.546;2023-04-08T06:28:32;38.42;34.38;
62631;PMS5003;48703;51.248;-0.546;2023-04-08T06:31:34;39.35;35.20;
62631;PMS5003;48703;51.248;-0.546;2023-04-08T06:34:35;39.49;38.01;
62631;PMS5003;48703;51.248;-0.546;2023-04-08T06:37:37;40.64;37.13;
62631;PMS5003;48703;51.248;-0.546;2023-04-08T06:40:38;41.70;36.58;
62631;PMS5003;48703;51.248;-0.546;2023-04-08T06:43:40;40.30;37.72;
62631;PMS5003;48703;51.248;-0.546;2023-04-08T06:46:42;43.41;38.13;
62631;PMS5003;48703;51.248;-0.546;2023-04-08T06:49:44;41.44;37.99;
62631;PMS5003;48703;51.248;-0.546;2023-04-08T06:52:45;41.32;39.41;
62631;PMS5003;48703;51.248;-0.546;2023-04-08T06:55:46;44.69;40.69;
62631;PMS5003;48703;51.248;-0.546;2023-04-08T06:58:46;45.06;39.16;
62631;PMS5003;48703;51.248;-0.546;2023-04-08T07:01:48;42.30;39.22;
62631;PMS5003;48703;51.248;-0.546;2023-04-08T07:04:50;41.93;37.11;
62631;PMS5003;48703;51.248;-0.546;2023-04-08T07:07:50;40.65;37.25;
62631;PMS5003;48703;51.248;-0.546;2023-04-08T07:10:51;40.83;35.42;
62631;PMS5003;48703;51.248;-0.546;2023-04-08T07:13:53;37.75;34.42;
62631;PMS5003;48703;51.248;-0.546;2023-04-08T07:16:55;41.17;36.83;
62631;PMS5003;48703;51.248;-0.546;2023-04-08T07:19:56;34.96;32.09;
62631;PMS5003;48703;51.248;-0.546;2023-04-08T07:22:57;38.84;35.04;
62631;PMS5003;48703;51.248;-0.546;2023-04-08T07:26:00;36.81;34.04;
62631;PMS5003;48703;51.248;-0.546;2023-04-08T07:29:00;41.62;37.94;
62631;PMS5003;48703;51.248;-0.546;2023-04-08T07:32:01;39.54;36.09;
62631;PMS5003;48703;51.248;-0.546;2023-04-08T07:35:03;39.42;35.94;
62631;PMS5003;48703;51.248;-0.546;2023-04-08T07:38:04;39.15;36.22;
62631;PMS5003;48703;51.248;-0.546;2023-04-08T07:41:05;39.93;37.22;
62631;PMS5003;48703;51.248;-0.546;2023-04-08T07:44:07;39.38;34.72;
62631;PMS5003;48703;51.248;-0.546;2023-04-08T07:47:08;41.87;37.24;
62631;PMS5003;48703;51.248;-0.546;2023-04-08T07:50:10;41.07;38.13;
62631;PMS5003;48703;51.248;-0.546;2023-04-08T07:53:11;42.38;39.33;
62631;PMS5003;48703;51.248;-0.546;2023-04-08T07:56:13;43.41;39.81;
62631;PMS5003;48703;51.248;-0.546;2023-04-08T07:59:13;39.99;37.80;
62631;PMS5003;48703;51.248;-0.546;2023-04-08T08:02:15;42.00;39.93;
62631;PMS5003;48703;51.248;-0.546;2023-04-08T08:05:16;42.03;39.03;
62631;PMS5003;48703;51.248;-0.546;2023-04-08T08:08:16;41.03;38.30;
62631;PMS5003;48703;51.248;-0.546;2023-04-08T08:11:18;39.38;36.22;
62631;PMS5003;48703;51.248;-0.546;2023-04-08T08:14:20;40.15;36.65;
62631;PMS5003;48703;51.248;-0.546;2023-04-08T08:17:21;40.25;37.01;
62631;PMS5003;48703;51.248;-0.546;2023-04-08T08:20:23;37.77;34.99;
62631;PMS5003;48703;51.248;-0.546;2023-04-08T08:23:24;39.77;35.12;
62631;PMS5003;48703;51.248;-0.546;2023-04-08T08:26:26;40.78;37.74;
62631;PMS5003;48703;51.248;-0.546;2023-04-08T08:29:28;40.31;37.82;
62631;PMS5003;48703;51.248;-0.546;2023-04-08T08:32:29;40.59;37.90;
62631;PMS5003;48703;51.248;-0.546;2023-04-08T08:35:31;38.75;35.67;
62631;PMS5003;48703;51.248;-0.546;2023-04-08T08:38:33;39.93;36.07;
62631;PMS5003;48703;51.248;-0.546;2023-04-08T08:41:35;39.37;34.77;
62631;PMS5003;48703;51.248;-0.546;2023-04-08T08:44:37;40.81;35.62;
62631;PMS5003;48703;51.248;-0.546;2023-04-08T08:47:39;36.83;33.80;
62631;PMS5003;48703;51.248;-0.546;2023-04-08T08:50:40;36.91;33.81;
62631;PMS5003;48703;51.248;-0.546;2023-04-08T08:53:42;35.96;33.39;
62631;PMS5003;48703;51.248;-0.546;2023-04-08T08:56:44;36.16;33.43;
62631;PMS5003;48703;51.248;-0.546;2023-04-08T08:59:46;36.56;33.78;
62631;PMS5003;48703;51.248;-0.546;2023-04-08T09:02:46;38.28;33.43;
62631;PMS5003;48703;51.248;-0.546;2023-04-08T09:05:48;37.25;32.10;
62631;PMS5003;48703;51.248;-0.546;2023-04-08T09:08:49;37.49;34.15;
62631;PMS5003;48703;51.248;-0.546;2023-04-08T09:12:03;35.38;30.61;
62631;PMS5003;48703;51.248;-0.546;2023-04-08T09:15:01;30.28;26.28;
62631;PMS5003;48703;51.248;-0.546;2023-04-08T09:17:54;26.89;24.53;
62631;PMS5003;48703;51.248;-0.546;2023-04-08T09:20:56;28.94;25.09;
62631;PMS5003;48703;51.248;-0.546;2023-04-08T09:23:58;29.24;26.07;
62631;PMS5003;48703;51.248;-0.546;2023-04-08T09:26:59;26.84;25.07;
62631;PMS5003;48703;51.248;-0.546;2023-04-08T09:30:16;26.10;22.80;
62631;PMS5003;48703;51.248;-0.546;2023-04-08T09:33:02;23.19;21.17;
62631;PMS5003;48703;51.248;-0.546;2023-04-08T09:36:04;26.51;23.07;
62631;PMS5003;48703;51.248;-0.546;2023-04-08T09:39:05;22.83;19.34;
62631;PMS5003;48703;51.248;-0.546;2023-04-08T09:42:07;25.47;21.96;
62631;PMS5003;48703;51.248;-0.546;2023-04-08T09:45:09;25.80;22.00;
62631;PMS5003;48703;51.248;-0.546;2023-04-08T09:48:11;22.00;20.32;
62631;PMS5003;48703;51.248;-0.546;2023-04-08T09:51:12;22.03;19.57;
62631;PMS5003;48703;51.248;-0.546;2023-04-08T09:54:15;23.88;22.30;
62631;PMS5003;48703;51.248;-0.546;2023-04-08T09:57:16;23.41;21.14;
62631;PMS5003;48703;51.248;-0.546;2023-04-08T10:00:17;22.39;19.71;
62631;PMS5003;48703;51.248;-0.546;2023-04-08T10:03:22;22.63;20.09;
62631;PMS5003;48703;51.248;-0.546;2023-04-08T10:06:20;22.84;21.14;
62631;PMS5003;48703;51.248;-0.546;2023-04-08T10:09:22;22.86;20.62;
62631;PMS5003;48703;51.248;-0.546;2023-04-08T10:12:24;17.70;16.22;
62631;PMS5003;48703;51.248;-0.546;2023-04-08T10:15:25;17.78;17.06;
62631;PMS5003;48703;51.248;-0.546;2023-04-08T10:18:30;19.19;18.19;
62631;PMS5003;48703;51.248;-0.546;2023-04-08T10:21:31;20.88;19.28;
62631;PMS5003;48703;51.248;-0.546;2023-04-08T10:24:29;21.19;20.26;
62631;PMS5003;48703;51.248;-0.546;2023-04-08T10:27:37;15.73;14.77;
62631;PMS5003;48703;51.248;-0.546;2023-04-08T10:30:40;16.32;15.67;
62631;PMS5003;48703;51.248;-0.546;2023-04-08T10:33:33;14.24;14.03;
62631;PMS5003;48703;51.248;-0.546;2023-04-08T10:36:35;15.57;14.41;
62631;PMS5003;48703;51.248;-0.546;2023-04-08T10:39:37;15.39;13.57;
62631;PMS5003;48703;51.248;-0.546;2023-04-08T10:42:38;18.04;15.54;
62631;PMS5003;48703;51.248;-0.546;2023-04-08T10:45:40;14.54;13.56;
62631;PMS5003;48703;51.248;-0.546;2023-04-08T10:48:42;17.41;17.27;
62631;PMS5003;48703;51.248;-0.546;2023-04-08T10:51:43;15.32;14.35;
62631;PMS5003;48703;51.248;-0.546;2023-04-08T10:54:45;14.66;13.63;
62631;PMS5003;48703;51.248;-0.546;2023-04-08T10:57:46;16.23;14.90;
62631;PMS5003;48703;51.248;-0.546;2023-04-08T11:00:47;15.54;13.76;
62631;PMS5003;48703;51.248;-0.546;2023-04-08T11:03:49;13.74;13.01;
62631;PMS5003;48703;51.248;-0.546;2023-04-08T11:06:50;14.44;13.24;
62631;PMS5003;48703;51.248;-0.546;2023-04-08T11:09:52;13.17;12.74;
62631;PMS5003;48703;51.248;-0.546;2023-04-08T11:12:54;15.20;13.07;
62631;PMS5003;48703;51.248;-0.546;2023-04-08T11:15:55;10.21;10.21;
62631;PMS5003;48703;51.248;-0.546;2023-04-08T11:18:57;10.87;10.67;
62631;PMS5003;48703;51.248;-0.546;2023-04-08T11:21:59;12.57;11.40;
62631;PMS5003;48703;51.248;-0.546;2023-04-08T11:25:00;15.63;13.50;
62631;PMS5003;48703;51.248;-0.546;2023-04-08T11:28:02;15.94;13.73;
62631;PMS5003;48703;51.248;-0.546;2023-04-08T11:31:03;11.23;10.00;
62631;PMS5003;48703;51.248;-0.546;2023-04-08T11:34:04;14.58;13.91;
62631;PMS5003;48703;51.248;-0.546;2023-04-08T11:37:06;11.81;11.76;
62631;PMS5003;48703;51.248;-0.546;2023-04-08T11:40:08;13.69;12.34;
62631;PMS5003;48703;51.248;-0.546;2023-04-08T11:43:09;11.34;10.54;
62631;PMS5003;48703;51.248;-0.546;2023-04-08T11:46:11;9.61;9.49;
62631;PMS5003;48703;51.248;-0.546;2023-04-08T11:49:13;11.39;9.90;
62631;PMS5003;48703;51.248;-0.546;2023-04-08T11:52:14;10.27;9.43;
62631;PMS5003;48703;51.248;-0.546;2023-04-08T11:55:21;9.24;8.66;
62631;PMS5003;48703;51.248;-0.546;2023-04-08T11:58:17;8.07;8.07;
62631;PMS5003;48703;51.248;-0.546;2023-04-08T12:01:19;9.33;8.91;
62631;PMS5003;48703;51.248;-0.546;2023-04-08T12:04:20;9.73;8.09;
62631;PMS5003;48703;51.248;-0.546;2023-04-08T12:07:21;7.40;7.24;
62631;PMS5003;48703;51.248;-0.546;2023-04-08T12:10:23;8.57;7.97;
62631;PMS5003;48703;51.248;-0.546;2023-04-08T12:13:24;10.36;9.25;
62631;PMS5003;48703;51.248;-0.546;2023-04-08T12:16:26;7.46;6.67;
62631;PMS5003;48703;51.248;-0.546;2023-04-08T12:19:27;9.28;8.88;
62631;PMS5003;48703;51.248;-0.546;2023-04-08T12:22:28;10.83;10.13;
62631;PMS5003;48703;51.248;-0.546;2023-04-08T12:25:30;9.56;8.00;
62631;PMS5003;48703;51.248;-0.546;2023-04-08T12:28:31;8.84;8.63;
62631;PMS5003;48703;51.248;-0.546;2023-04-08T12:31:33;8.74;8.20;
62631;PMS5003;48703;51.248;-0.546;2023-04-08T12:34:35;10.50;9.69;
62631;PMS5003;48703;51.248;-0.546;2023-04-08T12:37:36;9.23;8.56;
62631;PMS5003;48703;51.248;-0.546;2023-04-08T12:40:38;9.66;8.89;
62631;PMS5003;48703;51.248;-0.546;2023-04-08T12:43:39;9.74;9.20;
62631;PMS5003;48703;51.248;-0.546;2023-04-08T12:46:41;9.90;9.31;
62631;PMS5003;48703;51.248;-0.546;2023-04-08T12:49:42;10.56;9.83;
62631;PMS5003;48703;51.248;-0.546;2023-04-08T12:52:44;10.81;10.51;
62631;PMS5003;48703;51.248;-0.546;2023-04-08T12:55:46;11.06;9.21;
62631;PMS5003;48703;51.248;-0.546;2023-04-08T12:58:47;9.53;9.53;
62631;PMS5003;48703;51.248;-0.546;2023-04-08T13:01:49;11.39;10.39;
62631;PMS5003;48703;51.248;-0.546;2023-04-08T13:04:50;9.97;8.56;
62631;PMS5003;48703;51.248;-0.546;2023-04-08T13:07:52;10.00;9.99;
62631;PMS5003;48703;51.248;-0.546;2023-04-08T13:10:54;10.07;9.24;
62631;PMS5003;48703;51.248;-0.546;2023-04-08T13:13:55;9.87;8.03;
62631;PMS5003;48703;51.248;-0.546;2023-04-08T13:16:57;12.64;10.40;
62631;PMS5003;48703;51.248;-0.546;2023-04-08T13:19:58;9.06;8.47;
62631;PMS5003;48703;51.248;-0.546;2023-04-08T13:23:00;8.59;7.64;
62631;PMS5003;48703;51.248;-0.546;2023-04-08T13:26:02;9.30;9.09;
62631;PMS5003;48703;51.248;-0.546;2023-04-08T13:29:03;9.96;8.63;
62631;PMS5003;48703;51.248;-0.546;2023-04-08T13:32:05;6.74;6.66;
62631;PMS5003;48703;51.248;-0.546;2023-04-08T13:35:07;8.64;8.39;
62631;PMS5003;48703;51.248;-0.546;2023-04-08T13:38:08;9.81;8.81;
62631;PMS5003;48703;51.248;-0.546;2023-04-08T13:41:09;10.70;9.40;
62631;PMS5003;48703;51.248;-0.546;2023-04-08T13:44:11;8.67;8.31;
62631;PMS5003;48703;51.248;-0.546;2023-04-08T13:47:12;9.33;8.86;
62631;PMS5003;48703;51.248;-0.546;2023-04-08T13:50:14;9.50;8.17;
62631;PMS5003;48703;51.248;-0.546;2023-04-08T13:53:15;8.49;8.04;
62631;PMS5003;48703;51.248;-0.546;2023-04-08T13:56:17;10.03;9.50;
62631;PMS5003;48703;51.248;-0.546;2023-04-08T13:59:18;9.86;8.83;
62631;PMS5003;48703;51.248;-0.546;2023-04-08T14:02:19;9.26;8.73;
62631;PMS5003;48703;51.248;-0.546;2023-04-08T14:05:21;9.56;7.69;
62631;PMS5003;48703;51.248;-0.546;2023-04-08T14:08:23;8.80;7.43;
62631;PMS5003;48703;51.248;-0.546;2023-04-08T14:11:24;9.36;9.19;
62631;PMS5003;48703;51.248;-0.546;2023-04-08T14:14:26;8.99;7.87;
62631;PMS5003;48703;51.248;-0.546;2023-04-08T14:17:27;7.30;6.70;
62631;PMS5003;48703;51.248;-0.546;2023-04-08T14:20:29;9.54;8.77;
62631;PMS5003;48703;51.248;-0.546;2023-04-08T14:23:31;11.20;9.60;
62631;PMS5003;48703;51.248;-0.546;2023-04-08T14:26:33;10.89;9.33;
62631;PMS5003;48703;51.248;-0.546;2023-04-08T14:29:35;12.09;9.43;
62631;PMS5003;48703;51.248;-0.546;2023-04-08T14:32:36;9.84;9.46;
62631;PMS5003;48703;51.248;-0.546;2023-04-08T14:35:37;7.93;7.86;
62631;PMS5003;48703;51.248;-0.546;2023-04-08T14:38:39;8.76;8.54;
62631;PMS5003;48703;51.248;-0.546;2023-04-08T14:41:40;8.16;6.87;
62631;PMS5003;48703;51.248;-0.546;2023-04-08T14:44:42;7.31;7.31;
62631;PMS5003;48703;51.248;-0.546;2023-04-08T14:47:43;8.00;7.29;
62631;PMS5003;48703;51.248;-0.546;2023-04-08T14:50:45;8.61;8.43;
62631;PMS5003;48703;51.248;-0.546;2023-04-08T14:53:47;8.19;7.90;
62631;PMS5003;48703;51.248;-0.546;2023-04-08T14:56:48;10.77;9.93;
62631;PMS5003;48703;51.248;-0.546;2023-04-08T14:59:50;10.24;9.69;
62631;PMS5003;48703;51.248;-0.546;2023-04-08T15:02:51;9.31;8.76;
62631;PMS5003;48703;51.248;-0.546;2023-04-08T15:05:53;9.56;8.20;
62631;PMS5003;48703;51.248;-0.546;2023-04-08T15:08:54;8.84;8.64;
62631;PMS5003;48703;51.248;-0.546;2023-04-08T15:11:56;8.11;7.63;
62631;PMS5003;48703;51.248;-0.546;2023-04-08T15:14:57;10.50;8.74;
62631;PMS5003;48703;51.248;-0.546;2023-04-08T15:17:59;8.14;8.14;
62631;PMS5003;48703;51.248;-0.546;2023-04-08T15:21:00;9.96;9.60;
62631;PMS5003;48703;51.248;-0.546;2023-04-08T15:24:02;11.41;11.01;
62631;PMS5003;48703;51.248;-0.546;2023-04-08T15:27:04;10.79;9.34;
62631;PMS5003;48703;51.248;-0.546;2023-04-08T15:30:05;8.73;8.30;
62631;PMS5003;48703;51.248;-0.546;2023-04-08T15:33:06;9.07;8.13;
62631;PMS5003;48703;51.248;-0.546;2023-04-08T15:36:08;11.94;9.80;
62631;PMS5003;48703;51.248;-0.546;2023-04-08T15:39:09;12.38;10.58;
62631;PMS5003;48703;51.248;-0.546;2023-04-08T15:42:11;10.64;9.79;
62631;PMS5003;48703;51.248;-0.546;2023-04-08T15:45:12;8.91;8.91;
62631;PMS5003;48703;51.248;-0.546;2023-04-08T15:48:13;9.23;8.65;
62631;PMS5003;48703;51.248;-0.546;2023-04-08T15:51:15;8.23;8.07;
62631;PMS5003;48703;51.248;-0.546;2023-04-08T15:54:17;8.34;7.96;
62631;PMS5003;48703;51.248;-0.546;2023-04-08T15:57:18;9.27;8.80;
62631;PMS5003;48703;51.248;-0.546;2023-04-08T16:00:19;7.97;7.97;
62631;PMS5003;48703;51.248;-0.546;2023-04-08T16:03:20;10.09;9.58;
62631;PMS5003;48703;51.248;-0.546;2023-04-08T16:06:22;8.44;7.60;
62631;PMS5003;48703;51.248;-0.546;2023-04-08T16:09:23;9.44;8.77;
62631;PMS5003;48703;51.248;-0.546;2023-04-08T16:12:25;9.21;8.36;
62631;PMS5003;48703;51.248;-0.546;2023-04-08T16:15:26;9.71;8.13;
62631;PMS5003;48703;51.248;-0.546;2023-04-08T16:18:28;7.84;7.84;
62631;PMS5003;48703;51.248;-0.546;2023-04-08T16:21:30;9.31;8.97;
62631;PMS5003;48703;51.248;-0.546;2023-04-08T16:24:33;8.73;8.73;
62631;PMS5003;48703;51.248;-0.546;2023-04-08T16:27:32;9.69;8.19;
62631;PMS5003;48703;51.248;-0.546;2023-04-08T16:30:34;7.99;7.44;
62631;PMS5003;48703;51.248;-0.546;2023-04-08T16:33:35;10.37;8.27;
62631;PMS5003;48703;51.248;-0.546;2023-04-08T16:36:37;8.33;7.86;
62631;PMS5003;48703;51.248;-0.546;2023-04-08T16:39:39;8.09;7.67;
62631;PMS5003;48703;51.248;-0.546;2023-04-08T16:42:40;8.70;8.70;
62631;PMS5003;48703;51.248;-0.546;2023-04-08T16:45:42;8.79;8.33;
62631;PMS5003;48703;51.248;-0.546;2023-04-08T16:48:43;9.49;8.97;
62631;PMS5003;48703;51.248;-0.546;2023-04-08T16:51:45;7.99;7.19;
62631;PMS5003;48703;51.248;-0.546;2023-04-08T16:54:46;7.09;6.51;
62631;PMS5003;48703;51.248;-0.546;2023-04-08T16:57:48;9.43;8.00;
62631;PMS5003;48703;51.248;-0.546;2023-04-08T17:00:49;7.79;7.63;
62631;PMS5003;48703;51.248;-0.546;2023-04-08T17:03:51;7.93;7.93;
62631;PMS5003;48703;51.248;-0.546;2023-04-08T17:06:52;6.97;6.20;
62631;PMS5003;48703;51.248;-0.546;2023-04-08T17:09:54;7.73;7.73;
62631;PMS5003;48703;51.248;-0.546;2023-04-08T17:12:56;8.64;8.43;
62631;PMS5003;48703;51.248;-0.546;2023-04-08T17:15:57;7.60;7.60;
62631;PMS5003;48703;51.248;-0.546;2023-04-08T17:18:58;7.84;7.33;
62631;PMS5003;48703;51.248;-0.546;2023-04-08T17:22:00;9.13;8.06;
62631;PMS5003;48703;51.248;-0.546;2023-04-08T17:25:02;7.57;6.03;
62631;PMS5003;48703;51.248;-0.546;2023-04-08T17:28:03;8.27;7.84;
62631;PMS5003;48703;51.248;-0.546;2023-04-08T17:31:05;8.61;7.63;
62631;PMS5003;48703;51.248;-0.546;2023-04-08T17:34:06;6.90;6.64;
62631;PMS5003;48703;51.248;-0.546;2023-04-08T17:37:08;7.56;6.86;
62631;PMS5003;48703;51.248;-0.546;2023-04-08T17:40:09;6.86;6.03;
62631;PMS5003;48703;51.248;-0.546;2023-04-08T17:43:10;8.88;8.20;
62631;PMS5003;48703;51.248;-0.546;2023-04-08T17:46:12;7.91;7.30;
62631;PMS5003;48703;51.248;-0.546;2023-04-08T17:49:14;8.01;7.53;
62631;PMS5003;48703;51.248;-0.546;2023-04-08T17:52:15;8.39;7.30;
62631;PMS5003;48703;51.248;-0.546;2023-04-08T17:55:17;7.43;6.99;
62631;PMS5003;48703;51.248;-0.546;2023-04-08T17:58:18;7.54;7.33;
62631;PMS5003;48703;51.248;-0.546;2023-04-08T18:01:20;7.77;7.21;
62631;PMS5003;48703;51.248;-0.546;2023-04-08T18:04:21;8.96;8.13;
62631;PMS5003;48703;51.248;-0.546;2023-04-08T18:07:23;7.61;7.29;